Moko, Arkansas
Current Conditions -  °F | °C
As of 10:53 PM on Thursday 30 Oct 2014 (Local Time) from KUNO Reporting Station
Clear Clear  
Wind Chill:   Ceiling: Unl
Heat Index:   Visibility: 10mi
Dew Point:   Wind: 5mph
Humidity: 79%   Direction: 280°W
Pressure: 30.05"   Gusts: NA
Location:  36.47°N, 91.84°W
Report Text: KUNO 310353Z AUTO 28004KT 10SM CLR 08/04 A3005 RMK AO2 SLP175 T00780044
Loading
Personal Weather Stations






























Interactive Weather Map
Tropical Storm Tracking
New forecast layout! Learn more

10-Day Weather Forecast

Advertisements
Track Severe Weather on mobile